Time;durP1;ratioP1;P1;durP2;ratioP2;P2;SDS_P1;SDS_P2;PMS_P1;PMS_P2;Temp;Humidity;BMP_temperature;BMP_pressure;BME280_temperature;BME280_humidity;BME280_pressure;Samples;Min_cycle;Max_cycle;Signal;HPM_P1;HPM_P2
2022/07/21 00:01:33;;;;;;;9.90;8.30;;;21.00;99.90;;;;;;5028080;28;20033;-60
2022/07/21 00:03:59;;;;;;;9.82;8.70;;;21.00;99.90;;;;;;5031618;28;20057;-61
2022/07/21 00:06:25;;;;;;;10.85;8.35;;;20.90;99.90;;;;;;5028615;28;20056;-61
2022/07/21 00:08:51;;;;;;;9.95;8.95;;;21.00;99.90;;;;;;5030727;28;20079;-61
2022/07/21 00:11:16;;;;;;;10.88;9.55;;;21.10;99.90;;;;;;5036706;28;20033;-60
2022/07/21 00:13:42;;;;;;;11.38;8.85;;;21.00;99.90;;;;;;5039372;28;20060;-60
2022/07/21 00:16:08;;;;;;;11.85;9.30;;;20.80;99.90;;;;;;5028744;28;20108;-61
2022/07/21 00:18:33;;;;;;;9.40;8.43;;;20.80;99.90;;;;;;5045646;28;20021;-60
2022/07/21 00:20:59;;;;;;;10.05;9.05;;;20.80;99.90;;;;;;5029355;28;20107;-61
2022/07/21 00:23:26;;;;;;;10.27;8.93;;;20.90;99.90;;;;;;5047944;28;20028;-60
2022/07/21 00:25:52;;;;;;;10.65;9.57;;;20.70;99.90;;;;;;5026364;28;20440;-60
2022/07/21 00:28:17;;;;;;;11.02;9.20;;;20.70;99.90;;;;;;5031495;28;20036;-60
2022/07/21 00:30:43;;;;;;;10.05;8.93;;;20.60;99.90;;;;;;5030386;28;20820;-60
2022/07/21 00:33:09;;;;;;;12.05;9.55;;;20.60;99.90;;;;;;5028611;28;20041;-60
2022/07/21 00:35:35;;;;;;;11.40;9.30;;;20.50;99.90;;;;;;5025073;28;20662;-61
2022/07/21 00:38:00;;;;;;;11.10;8.77;;;20.60;99.90;;;;;;5028838;28;20100;-60
2022/07/21 00:40:26;;;;;;;11.15;8.95;;;20.80;99.90;;;;;;5028462;28;20025;-60
2022/07/21 00:42:52;;;;;;;12.60;9.27;;;21.00;99.90;;;;;;5034506;28;20497;-61
2022/07/21 00:45:18;;;;;;;12.35;9.95;;;20.90;99.90;;;;;;5032807;28;20025;-61
2022/07/21 00:47:44;;;;;;;11.15;10.00;;;20.70;99.90;;;;;;5034038;28;20029;-60
2022/07/21 00:50:13;;;;;;;11.23;9.77;;;20.70;99.90;;;;;;5025023;28;20474;-60
2022/07/21 00:52:39;;;;;;;12.75;10.35;;;20.70;99.90;;;;;;5038324;28;20040;-61
2022/07/21 00:55:09;;;;;;;13.77;10.32;;;20.70;99.90;;;;;;5029874;28;20477;-61
2022/07/21 00:57:35;;;;;;;11.60;9.93;;;20.70;99.90;;;;;;5026728;28;20056;-60
2022/07/21 01:00:02;;;;;;;13.55;11.15;;;20.70;99.90;;;;;;5030261;28;20385;-60
2022/07/21 01:02:28;;;;;;;12.43;10.45;;;20.70;99.90;;;;;;5027750;28;20036;-60
2022/07/21 01:04:54;;;;;;;12.13;10.93;;;20.60;99.90;;;;;;5038582;28;20041;-60
2022/07/21 01:07:20;;;;;;;11.65;9.93;;;20.70;99.90;;;;;;5025403;28;20032;-61
2022/07/21 01:09:46;;;;;;;10.90;9.77;;;20.60;99.90;;;;;;5028091;28;20034;-62
2022/07/21 01:12:11;;;;;;;13.20;10.00;;;20.60;99.90;;;;;;5027036;28;20103;-61
2022/07/21 01:14:38;;;;;;;13.13;10.98;;;20.60;99.90;;;;;;5040849;28;20029;-62
2022/07/21 01:17:04;;;;;;;13.32;10.88;;;20.70;99.90;;;;;;5037499;28;20024;-61
2022/07/21 01:19:30;;;;;;;11.90;10.68;;;20.70;99.90;;;;;;5039750;28;20040;-60
2022/07/21 01:21:56;;;;;;;12.40;10.68;;;20.70;99.90;;;;;;5033779;28;20209;-60
2022/07/21 01:24:21;;;;;;;11.75;10.38;;;20.70;99.90;;;;;;5032681;28;20440;-60
2022/07/21 01:26:50;;;;;;;12.15;10.73;;;20.50;99.90;;;;;;5035962;28;20476;-60
2022/07/21 01:29:17;;;;;;;13.07;10.00;;;20.70;99.90;;;;;;5037392;28;20504;-60
2022/07/21 01:31:44;;;;;;;13.40;10.45;;;20.70;99.90;;;;;;5024629;28;20029;-61
2022/07/21 01:34:11;;;;;;;11.75;10.23;;;20.50;99.90;;;;;;5028813;28;20065;-60
2022/07/21 01:36:37;;;;;;;10.75;9.73;;;20.50;99.90;;;;;;5028827;28;20577;-60
2022/07/21 01:41:48;;;;;;;11.45;10.32;;;20.70;99.90;;;;;;5034483;28;20040;-60
2022/07/21 01:44:14;;;;;;;14.20;11.07;;;20.70;99.90;;;;;;5030898;28;20689;-60
2022/07/21 01:46:45;;;;;;;13.23;9.95;;;20.60;99.90;;;;;;5037896;28;20032;-60
2022/07/21 01:49:13;;;;;;;13.43;10.95;;;20.50;99.90;;;;;;5029385;28;20033;-60
2022/07/21 01:51:39;;;;;;;12.18;10.75;;;20.70;99.90;;;;;;5039321;28;20079;-60
2022/07/21 01:54:06;;;;;;;12.52;10.73;;;20.60;99.90;;;;;;5033515;28;20535;-60
2022/07/21 01:56:33;;;;;;;13.70;10.65;;;20.70;99.90;;;;;;5036592;28;20485;-60
2022/07/21 01:58:59;;;;;;;11.52;10.32;;;20.60;99.90;;;;;;5034002;28;20049;-60
2022/07/21 02:01:26;;;;;;;15.38;10.43;;;20.60;99.90;;;;;;5040353;28;20056;-61
2022/07/21 02:03:53;;;;;;;11.73;9.77;;;20.60;99.90;;;;;;5028828;28;20025;-60
2022/07/21 02:06:18;;;;;;;11.88;10.70;;;20.50;99.90;;;;;;5035906;28;20544;-60
2022/07/21 02:08:44;;;;;;;11.63;10.43;;;20.50;99.90;;;;;;5033037;28;20021;-60
2022/07/21 02:11:11;;;;;;;13.52;10.90;;;20.50;99.90;;;;;;5030908;28;20014;-60
2022/07/21 02:13:36;;;;;;;12.85;11.48;;;20.40;99.90;;;;;;5037863;28;20092;-60
2022/07/21 02:16:03;;;;;;;13.77;10.68;;;20.50;99.90;;;;;;5036960;28;20522;-60
2022/07/21 02:18:28;;;;;;;15.40;11.10;;;20.50;99.90;;;;;;5050349;28;20044;-60
2022/07/21 02:20:54;;;;;;;13.00;10.90;;;20.50;99.90;;;;;;5033249;28;20493;-60
2022/07/21 02:23:21;;;;;;;14.00;11.20;;;20.60;99.90;;;;;;5047874;28;20064;-60
2022/07/21 02:25:48;;;;;;;15.30;12.00;;;20.40;99.90;;;;;;5032176;28;20987;-60
2022/07/21 02:28:14;;;;;;;13.30;11.20;;;20.30;99.90;;;;;;5037307;28;20090;-60
2022/07/21 02:30:40;;;;;;;16.40;11.60;;;20.30;99.90;;;;;;5030473;28;20472;-61
2022/07/21 02:33:05;;;;;;;14.35;10.95;;;20.20;99.90;;;;;;5032143;28;20110;-61
2022/07/21 02:35:32;;;;;;;13.45;10.25;;;20.20;99.90;;;;;;5028635;28;20038;-61
2022/07/21 02:37:58;;;;;;;11.00;9.68;;;20.40;99.90;;;;;;5036298;28;20029;-61
2022/07/21 02:40:24;;;;;;;11.55;10.35;;;20.10;99.90;;;;;;5030934;28;20045;-61
2022/07/21 02:42:49;;;;;;;12.27;10.10;;;20.20;99.90;;;;;;5038577;28;20421;-61
2022/07/21 02:45:15;;;;;;;11.82;9.43;;;20.00;99.90;;;;;;5029379;28;20034;-60
2022/07/21 02:47:56;;;;;;;12.57;9.75;;;20.10;99.90;;;;;;5044592;28;20036;-60
2022/07/21 02:50:24;;;;;;;12.32;9.35;;;20.10;99.90;;;;;;5030581;28;20497;-60
2022/07/21 02:52:53;;;;;;;12.60;9.25;;;20.10;99.90;;;;;;5039993;28;20113;-60
2022/07/21 02:55:18;;;;;;;12.18;9.00;;;20.00;99.90;;;;;;5026776;28;20509;-60
2022/07/21 02:57:44;;;;;;;11.25;9.50;;;20.10;99.90;;;;;;5031105;28;20032;-60
2022/07/21 03:00:10;;;;;;;10.95;9.10;;;20.40;99.90;;;;;;5027947;28;20032;-61
2022/07/21 03:02:36;;;;;;;10.55;9.00;;;20.20;99.90;;;;;;5032413;28;20025;-60
2022/07/21 03:05:03;;;;;;;10.52;9.40;;;20.20;99.90;;;;;;5031952;28;20400;-60
2022/07/21 03:07:28;;;;;;;10.00;8.82;;;19.80;99.90;;;;;;5029136;28;20041;-60
2022/07/21 03:09:54;;;;;;;12.77;9.00;;;19.50;99.90;;;;;;5033134;28;20025;-60
2022/07/21 03:12:19;;;;;;;9.80;8.77;;;19.70;99.90;;;;;;5030987;28;20083;-60
2022/07/21 03:14:45;;;;;;;14.05;9.07;;;19.60;99.90;;;;;;5026352;28;20099;-60
2022/07/21 03:17:11;;;;;;;9.80;8.80;;;19.70;99.90;;;;;;5042723;28;20044;-60
2022/07/21 03:19:36;;;;;;;8.95;7.95;;;19.70;99.90;;;;;;5042852;28;20033;-61
2022/07/21 03:22:02;;;;;;;11.38;9.20;;;19.80;99.90;;;;;;5038752;28;20100;-60
2022/07/21 03:24:29;;;;;;;12.98;9.27;;;19.70;99.90;;;;;;5035947;28;20102;-60
2022/07/21 03:26:56;;;;;;;11.98;9.98;;;19.70;99.90;;;;;;5035066;28;20068;-60
2022/07/21 03:29:22;;;;;;;11.93;10.35;;;19.70;99.90;;;;;;5030717;28;20042;-60
2022/07/21 03:31:47;;;;;;;13.13;9.77;;;19.50;99.90;;;;;;5028152;28;20033;-59
2022/07/21 03:34:13;;;;;;;13.65;10.35;;;19.50;99.90;;;;;;5032155;28;20028;-60
2022/07/21 03:36:39;;;;;;;14.35;11.75;;;19.50;99.90;;;;;;5031703;28;20028;-60
2022/07/21 03:39:04;;;;;;;12.27;10.98;;;19.50;99.90;;;;;;5031881;28;20470;-60
2022/07/21 03:41:30;;;;;;;16.98;11.73;;;19.40;99.90;;;;;;5041864;28;20028;-59
2022/07/21 03:43:56;;;;;;;13.15;11.77;;;19.30;99.90;;;;;;5030265;28;20025;-60
2022/07/21 03:46:22;;;;;;;13.57;11.52;;;19.20;99.90;;;;;;5029984;28;20214;-59
2022/07/21 03:48:48;;;;;;;14.60;11.93;;;19.30;99.90;;;;;;5035127;28;20041;-60
2022/07/21 03:51:13;;;;;;;16.40;12.65;;;19.20;99.90;;;;;;5034613;28;20067;-60
2022/07/21 03:53:39;;;;;;;14.15;12.55;;;19.60;99.90;;;;;;5036370;28;20030;-60
2022/07/21 03:56:05;;;;;;;14.38;12.88;;;19.30;99.90;;;;;;5026115;28;20025;-61
2022/07/21 03:58:30;;;;;;;16.00;13.30;;;19.90;99.90;;;;;;5031495;28;20112;-60
2022/07/21 04:00:56;;;;;;;15.70;12.80;;;19.80;99.90;;;;;;5043578;28;20095;-60
2022/07/21 04:03:21;;;;;;;15.10;12.95;;;20.00;99.90;;;;;;5028293;28;20041;-60
2022/07/21 04:05:47;;;;;;;14.80;12.82;;;19.90;99.90;;;;;;5031759;28;20021;-60
2022/07/21 04:08:13;;;;;;;19.83;13.98;;;19.80;99.90;;;;;;5029269;28;20030;-60
2022/07/21 04:10:40;;;;;;;20.20;14.05;;;20.10;99.90;;;;;;5029912;28;20388;-60
2022/07/21 04:13:08;;;;;;;15.02;13.43;;;19.90;99.90;;;;;;5039630;28;20033;-60
2022/07/21 04:15:34;;;;;;;16.40;13.85;;;19.90;99.90;;;;;;5042248;28;20060;-60
2022/07/21 04:17:59;;;;;;;15.52;12.98;;;19.50;99.90;;;;;;5047106;28;20499;-60
2022/07/21 04:20:25;;;;;;;17.65;12.68;;;19.50;99.90;;;;;;5039901;28;20101;-60
2022/07/21 04:22:52;;;;;;;19.88;13.57;;;19.70;99.90;;;;;;5039089;28;20025;-60
2022/07/21 04:25:18;;;;;;;14.60;13.00;;;19.70;99.90;;;;;;5029547;28;20041;-60
2022/07/21 04:27:44;;;;;;;16.77;13.68;;;;;;;;;;5026438;28;20033;-60
2022/07/21 04:30:13;;;;;;;16.60;13.88;;;20.30;99.90;;;;;;5033228;28;20205;-60
2022/07/21 04:32:38;;;;;;;18.15;13.57;;;20.30;99.90;;;;;;5030747;28;20090;-60
2022/07/21 04:35:05;;;;;;;16.00;14.15;;;20.10;99.90;;;;;;5030558;28;20029;-61
2022/07/21 04:37:31;;;;;;;19.85;14.05;;;20.20;99.90;;;;;;5025580;28;20547;-60
2022/07/21 04:39:57;;;;;;;16.70;14.45;;;20.20;99.90;;;;;;5029269;28;20049;-60
2022/07/21 04:42:22;;;;;;;18.38;14.07;;;20.20;99.90;;;;;;5028013;28;20028;-61
2022/07/21 04:44:48;;;;;;;16.90;14.27;;;20.20;99.90;;;;;;5034846;28;20102;-60
2022/07/21 04:47:14;;;;;;;16.70;13.88;;;20.30;99.90;;;;;;5038229;28;20041;-60
2022/07/21 04:49:39;;;;;;;18.52;15.00;;;20.20;99.90;;;;;;5030950;28;20029;-60
2022/07/21 04:52:05;;;;;;;17.95;15.07;;;20.30;99.90;;;;;;5040467;28;20322;-61
2022/07/21 04:54:30;;;;;;;14.65;13.02;;;20.20;99.90;;;;;;5031723;28;20025;-60
2022/07/21 04:56:56;;;;;;;17.85;14.68;;;20.00;99.90;;;;;;5030229;28;20017;-60
2022/07/21 04:59:22;;;;;;;17.08;14.23;;;20.10;99.90;;;;;;5035218;28;20096;-61
2022/07/21 05:01:47;;;;;;;17.00;14.27;;;20.10;99.90;;;;;;5031167;28;20238;-60
2022/07/21 05:04:13;;;;;;;18.00;14.32;;;20.10;99.90;;;;;;5028197;28;20033;-60
2022/07/21 05:06:40;;;;;;;15.63;13.82;;;19.60;99.90;;;;;;5028782;28;20047;-60
2022/07/21 05:09:06;;;;;;;16.92;13.25;;;19.70;99.90;;;;;;5032703;28;20441;-61
2022/07/21 05:11:32;;;;;;;17.15;13.75;;;19.60;99.90;;;;;;5029720;28;20064;-60
2022/07/21 05:13:58;;;;;;;17.38;14.13;;;19.80;99.90;;;;;;5030203;28;20029;-60
2022/07/21 05:16:23;;;;;;;17.98;13.93;;;19.80;99.90;;;;;;5038244;28;20056;-60
2022/07/21 05:18:49;;;;;;;16.13;14.43;;;19.70;99.90;;;;;;5039367;28;20026;-60
2022/07/21 05:21:14;;;;;;;18.10;13.95;;;19.90;99.90;;;;;;5037087;28;20029;-60
2022/07/21 05:23:40;;;;;;;18.77;14.40;;;19.90;99.90;;;;;;5032764;28;20588;-60
2022/07/21 05:26:07;;;;;;;18.00;14.82;;;;;;;;;;5029680;28;20113;-60
2022/07/21 05:28:32;;;;;;;19.60;14.70;;;19.80;99.90;;;;;;5030005;28;20036;-60
2022/07/21 05:30:58;;;;;;;16.65;14.38;;;20.10;99.90;;;;;;5030125;28;20045;-60
2022/07/21 05:33:24;;;;;;;16.17;14.30;;;;;;;;;;5024472;28;20050;-60
2022/07/21 05:35:50;;;;;;;17.55;14.45;;;20.10;99.90;;;;;;5028380;28;20092;-60
2022/07/21 05:38:17;;;;;;;16.48;13.77;;;20.50;99.90;;;;;;5026559;28;20021;-61
2022/07/21 05:40:43;;;;;;;17.35;14.68;;;20.30;99.90;;;;;;5030195;28;20075;-61
2022/07/21 05:43:09;;;;;;;16.50;14.18;;;20.40;99.90;;;;;;5030820;28;20029;-60
2022/07/21 05:45:34;;;;;;;17.42;13.43;;;20.10;99.90;;;;;;5029924;28;20052;-60
2022/07/21 05:48:02;;;;;;;19.27;14.70;;;20.10;99.90;;;;;;5036176;28;20112;-60
2022/07/21 05:50:28;;;;;;;17.17;14.23;;;20.20;99.90;;;;;;5029191;28;20033;-61
2022/07/21 05:52:54;;;;;;;21.65;15.15;;;20.10;99.90;;;;;;5034379;28;20388;-60
2022/07/21 05:55:19;;;;;;;17.63;14.35;;;20.40;99.90;;;;;;5036236;28;20663;-60
2022/07/21 05:57:45;;;;;;;16.83;15.05;;;20.40;99.90;;;;;;5030190;28;20553;-60
2022/07/21 06:00:11;;;;;;;18.83;14.38;;;20.40;99.90;;;;;;5027761;28;20030;-60
2022/07/21 06:02:36;;;;;;;18.63;12.52;;;20.40;99.90;;;;;;5027686;28;20041;-61
2022/07/21 06:05:02;;;;;;;16.23;13.20;;;20.30;99.90;;;;;;5024670;28;20401;-60
2022/07/21 06:07:28;;;;;;;18.10;14.07;;;20.40;99.90;;;;;;5028850;28;20249;-60
2022/07/21 06:09:54;;;;;;;18.67;14.13;;;20.40;99.90;;;;;;5026140;28;20034;-60
2022/07/21 06:12:19;;;;;;;17.35;13.13;;;20.40;99.90;;;;;;5031227;28;20033;-60
2022/07/21 06:14:45;;;;;;;16.30;14.10;;;20.60;99.90;;;;;;5039508;28;20024;-60
2022/07/21 06:17:10;;;;;;;16.60;13.75;;;20.50;99.90;;;;;;5039917;28;20021;-60
2022/07/21 06:19:36;;;;;;;18.38;13.98;;;20.40;99.90;;;;;;5038808;28;20068;-60
2022/07/21 06:22:04;;;;;;;17.50;13.20;;;20.40;99.90;;;;;;5041212;28;20025;-60
2022/07/21 06:24:30;;;;;;;14.10;12.50;;;20.30;99.90;;;;;;5032893;28;20385;-60
2022/07/21 06:26:55;;;;;;;16.70;13.10;;;20.40;99.90;;;;;;5035203;28;20025;-60
2022/07/21 06:29:22;;;;;;;17.73;15.20;;;20.40;99.90;;;;;;5030335;28;20029;-60
2022/07/21 06:31:47;;;;;;;16.35;13.32;;;20.50;99.90;;;;;;5031595;28;20041;-60
2022/07/21 06:34:13;;;;;;;16.88;12.30;;;20.90;99.90;;;;;;5035171;28;20032;-61
2022/07/21 06:36:39;;;;;;;16.38;12.77;;;20.70;99.90;;;;;;5037423;28;20029;-60
2022/07/21 06:39:05;;;;;;;14.88;12.38;;;21.00;99.90;;;;;;5033197;28;20509;-60
2022/07/21 06:41:31;;;;;;;15.60;11.80;;;20.70;99.90;;;;;;5032215;28;20031;-60
2022/07/21 06:43:59;;;;;;;15.50;11.57;;;;;;;;;;5026918;28;20054;-60
2022/07/21 06:46:27;;;;;;;12.73;11.20;;;;;;;;;;5035168;28;20018;-60
2022/07/21 06:48:52;;;;;;;14.70;12.05;;;21.00;99.90;;;;;;5039144;28;20043;-60
2022/07/21 06:51:18;;;;;;;18.02;12.25;;;21.40;99.90;;;;;;5032204;28;20033;-61
2022/07/21 06:53:45;;;;;;;15.60;12.23;;;21.40;99.90;;;;;;5039147;28;20120;-61
2022/07/21 06:56:11;;;;;;;16.40;10.90;;;21.40;99.90;;;;;;5029977;28;20033;-61
2022/07/21 06:58:38;;;;;;;13.07;10.88;;;;;;;;;;5026560;28;20036;-60
2022/07/21 07:01:04;;;;;;;16.85;11.60;;;21.40;99.90;;;;;;5039289;28;20026;-61
2022/07/21 07:03:30;;;;;;;14.32;10.57;;;;;;;;;;5031567;28;20079;-61
2022/07/21 07:05:57;;;;;;;13.38;10.70;;;;;;;;;;5028765;28;20029;-60
2022/07/21 07:08:23;;;;;;;14.55;9.85;;;;;;;;;;5034601;28;20033;-60
2022/07/21 07:10:49;;;;;;;13.45;10.38;;;21.60;99.90;;;;;;5033334;28;20071;-61
2022/07/21 07:13:15;;;;;;;10.38;6.95;;;21.90;99.90;;;;;;5034058;28;20064;-60
2022/07/21 07:15:42;;;;;;;15.60;9.70;;;;;;;;;;5030522;28;20439;-61
2022/07/21 07:18:07;;;;;;;11.40;8.90;;;21.60;99.90;;;;;;5038931;28;20457;-61
2022/07/21 07:20:33;;;;;;;7.65;6.85;;;21.90;99.90;;;;;;5029219;28;20053;-60
2022/07/21 07:22:59;;;;;;;11.70;8.52;;;21.80;99.90;;;;;;5039440;28;20708;-61
2022/07/21 07:25:26;;;;;;;14.60;9.57;;;;;;;;;;5026286;28;20021;-60
2022/07/21 07:27:56;;;;;;;12.43;8.25;;;;;;;;;;5030009;28;20031;-61
2022/07/21 07:30:21;;;;;;;11.52;8.75;;;21.90;99.90;;;;;;5029555;28;20055;-60
2022/07/21 07:32:47;;;;;;;9.88;7.88;;;22.10;99.90;;;;;;5029914;28;20041;-60
2022/07/21 07:35:16;;;;;;;13.63;8.30;;;;;;;;;;5031873;28;20036;-61
2022/07/21 07:37:44;;;;;;;14.55;9.38;;;22.00;99.90;;;;;;5028948;28;20053;-60
2022/07/21 07:40:15;;;;;;;10.02;7.85;;;22.30;99.90;;;;;;5025972;28;20034;-60
2022/07/21 07:42:41;;;;;;;15.95;8.52;;;22.40;99.90;;;;;;5030559;28;20033;-60
2022/07/21 07:45:08;;;;;;;11.82;7.40;;;22.60;99.90;;;;;;5031210;28;20037;-60
2022/07/21 07:47:34;;;;;;;9.43;6.47;;;22.40;99.90;;;;;;5031460;28;20132;-61
2022/07/21 07:50:00;;;;;;;11.48;7.57;;;22.40;99.90;;;;;;5031355;28;20022;-60
2022/07/21 07:52:28;;;;;;;9.38;7.28;;;22.40;99.90;;;;;;5038745;28;20056;-60
2022/07/21 07:54:54;;;;;;;10.63;6.43;;;22.40;99.90;;;;;;5037215;28;20033;-60
2022/07/21 07:57:20;;;;;;;11.43;7.03;;;22.40;99.90;;;;;;5026476;28;20025;-61
2022/07/21 07:59:45;;;;;;;11.32;6.90;;;22.20;99.90;;;;;;5030460;28;20029;-61
2022/07/21 08:02:11;;;;;;;12.00;6.85;;;22.10;99.90;;;;;;5028405;28;20079;-60
2022/07/21 08:04:37;;;;;;;13.82;7.78;;;22.30;99.90;;;;;;5033417;28;20025;-61
2022/07/21 08:07:03;;;;;;;15.65;8.88;;;22.30;99.90;;;;;;5037235;28;20021;-60
2022/07/21 08:09:29;;;;;;;9.98;8.05;;;21.90;99.90;;;;;;5029016;28;20371;-60
2022/07/21 08:11:55;;;;;;;15.77;9.18;;;22.10;99.90;;;;;;5025960;28;20032;-60
2022/07/21 08:14:21;;;;;;;14.70;8.10;;;22.10;99.90;;;;;;5040205;28;20688;-61
2022/07/21 08:16:46;;;;;;;14.30;8.32;;;22.30;99.90;;;;;;5033662;28;20094;-60
2022/07/21 08:19:12;;;;;;;12.23;8.07;;;22.40;99.90;;;;;;5052411;28;20481;-60
2022/07/21 08:21:38;;;;;;;13.30;8.52;;;22.60;99.90;;;;;;5031941;28;20032;-61
2022/07/21 08:24:04;;;;;;;10.80;8.23;;;22.50;99.90;;;;;;5032360;28;20021;-61
2022/07/21 08:26:30;;;;;;;11.60;8.10;;;22.70;99.90;;;;;;5025706;28;20440;-60
2022/07/21 08:28:57;;;;;;;6.30;5.68;;;23.50;99.90;;;;;;5026914;28;20034;-61
2022/07/21 08:31:23;;;;;;;13.23;7.85;;;22.90;99.90;;;;;;5030944;28;20033;-60
2022/07/21 08:33:49;;;;;;;12.48;8.02;;;22.90;99.90;;;;;;5029576;28;20081;-60
2022/07/21 08:36:15;;;;;;;12.77;8.35;;;23.00;99.90;;;;;;5025412;28;20073;-61
2022/07/21 08:38:41;;;;;;;10.85;7.78;;;23.00;99.90;;;;;;5032659;28;20056;-60
2022/07/21 08:41:08;;;;;;;10.13;7.68;;;22.90;99.90;;;;;;5031313;28;20032;-60
2022/07/21 08:43:34;;;;;;;14.43;8.90;;;22.90;99.90;;;;;;5029452;28;20036;-60
2022/07/21 08:45:59;;;;;;;14.57;8.90;;;23.00;99.90;;;;;;5034918;28;20040;-61
2022/07/21 08:48:26;;;;;;;12.75;8.32;;;22.90;99.90;;;;;;5030281;28;20029;-61
2022/07/21 08:50:52;;;;;;;12.40;8.57;;;22.90;99.90;;;;;;5037816;28;20048;-60
2022/07/21 08:53:18;;;;;;;14.57;8.18;;;23.00;99.90;;;;;;5035169;28;20060;-60
2022/07/21 08:55:44;;;;;;;12.35;8.27;;;23.10;99.90;;;;;;5028906;28;20037;-61
2022/07/21 08:58:11;;;;;;;12.55;7.82;;;23.30;99.90;;;;;;5026343;28;20448;-61
2022/07/21 09:00:39;;;;;;;11.65;7.72;;;23.30;99.90;;;;;;5030586;28;20051;-60
2022/07/21 09:03:20;;;;;;;14.05;7.90;;;23.30;99.90;;;;;;5033854;28;20025;-61
2022/07/21 09:06:06;;;;;;;11.05;7.97;;;23.30;99.90;;;;;;5027902;28;20060;-60
2022/07/21 09:08:37;;;;;;;9.60;7.53;;;23.30;99.90;;;;;;5028564;28;20545;-61
2022/07/21 09:11:16;;;;;;;13.40;7.38;;;23.30;99.90;;;;;;5026128;28;20021;-60
2022/07/21 09:13:44;;;;;;;13.55;7.43;;;23.30;99.90;;;;;;5040488;28;20024;-60
2022/07/21 09:16:10;;;;;;;10.27;7.28;;;23.10;99.90;;;;;;5028720;28;20033;-60
2022/07/21 09:18:50;;;;;;;9.50;7.38;;;23.30;99.90;;;;;;5044277;28;20025;-61
2022/07/21 09:21:17;;;;;;;10.05;7.57;;;23.20;99.90;;;;;;5029890;28;20377;-60
2022/07/21 09:23:42;;;;;;;10.43;7.13;;;23.20;99.90;;;;;;5039755;28;20029;-61
2022/07/21 09:26:08;;;;;;;11.57;7.40;;;23.20;99.90;;;;;;5041724;28;20024;-61
2022/07/21 09:28:34;;;;;;;8.80;7.70;;;23.20;99.90;;;;;;5034898;28;20053;-60
2022/07/21 09:31:06;;;;;;;11.02;8.07;;;23.20;99.90;;;;;;5024433;28;20088;-61
2022/07/21 09:33:35;;;;;;;10.63;7.00;;;23.30;99.90;;;;;;5041509;28;20500;-60
2022/07/21 09:36:10;;;;;;;11.98;7.65;;;23.40;99.90;;;;;;5030947;28;20034;-61
2022/07/21 09:38:58;;;;;;;12.10;6.82;;;23.20;99.90;;;;;;5036751;28;20436;-60
2022/07/21 09:41:25;;;;;;;12.48;7.55;;;23.10;99.90;;;;;;5029787;28;20211;-60
2022/07/21 09:43:54;;;;;;;15.15;7.45;;;23.30;99.90;;;;;;5032047;28;20497;-61
2022/07/21 09:46:28;;;;;;;13.57;7.85;;;23.00;99.90;;;;;;5039251;28;20630;-60
2022/07/21 09:49:01;;;;;;;13.00;8.35;;;22.70;99.90;;;;;;5029525;28;20033;-60
2022/07/21 09:51:28;;;;;;;;;;;22.60;99.90;;;;;;5034078;28;20039;-60
2022/07/21 09:54:03;;;;;;;12.68;8.98;;;22.50;99.90;;;;;;5030690;28;19928;-60
2022/07/21 09:56:31;;;;;;;13.43;8.52;;;22.30;99.90;;;;;;5028093;28;20104;-61
2022/07/21 09:58:58;;;;;;;18.33;9.02;;;22.30;99.90;;;;;;5033879;28;20025;-62
2022/07/21 10:01:26;;;;;;;12.77;9.90;;;22.30;99.90;;;;;;5031571;28;20028;-61
2022/07/21 10:03:53;;;;;;;19.42;11.82;;;22.00;99.90;;;;;;5028118;28;20108;-62
2022/07/21 10:06:22;;;;;;;12.70;10.75;;;21.80;99.90;;;;;;5039232;28;20517;-61
2022/07/21 10:08:48;;;;;;;18.52;12.02;;;21.80;99.90;;;;;;5032696;28;20035;-61
2022/07/21 10:11:14;;;;;;;18.40;11.73;;;21.80;99.90;;;;;;5040253;28;20063;-61
2022/07/21 10:13:40;;;;;;;16.27;12.85;;;22.00;99.90;;;;;;5044245;28;20125;-61
2022/07/21 10:16:10;;;;;;;20.00;13.75;;;21.90;99.90;;;;;;5034694;28;20404;-61
2022/07/21 10:18:44;;;;;;;17.85;13.57;;;21.90;99.90;;;;;;5051722;28;20033;-61
2022/07/21 10:21:45;;;;;;;18.27;13.50;;;21.80;99.90;;;;;;5034799;28;20162;-61
2022/07/21 10:24:12;;;;;;;18.17;13.27;;;22.10;99.90;;;;;;5004351;28;20045;-61
2022/07/21 10:26:39;;;;;;;17.05;12.80;;;21.80;99.90;;;;;;5032977;28;20036;-61
2022/07/21 10:29:05;;;;;;;17.05;12.77;;;21.80;99.90;;;;;;5032332;28;20029;-60
2022/07/21 10:31:30;;;;;;;18.17;13.10;;;21.50;99.90;;;;;;5028214;28;20041;-61
2022/07/21 10:33:58;;;;;;;17.52;11.98;;;21.40;99.90;;;;;;5031433;28;20122;-61
2022/07/21 10:36:27;;;;;;;19.30;12.40;;;21.40;99.90;;;;;;5039336;28;20027;-61
2022/07/21 10:39:17;;;;;;;15.27;12.05;;;21.50;99.90;;;;;;5031386;28;20029;-62
2022/07/21 10:41:47;;;;;;;15.43;11.80;;;21.70;99.90;;;;;;5033420;28;20018;-62
2022/07/21 10:44:27;;;;;;;16.20;11.68;;;21.70;99.90;;;;;;5030607;28;20040;-62
2022/07/21 10:47:04;;;;;;;18.63;11.90;;;;;;;;;;5037701;28;20029;-61
2022/07/21 10:49:48;;;;;;;18.55;12.02;;;21.80;99.90;;;;;;5030791;28;20033;-62
2022/07/21 10:52:35;;;;;;;17.52;12.30;;;21.60;99.90;;;;;;5043181;28;20383;-61
2022/07/21 10:55:09;;;;;;;15.85;12.30;;;21.60;99.90;;;;;;5033152;28;20487;-62
2022/07/21 10:57:47;;;;;;;13.90;10.23;;;21.60;99.90;;;;;;5030075;28;20030;-62
2022/07/21 11:00:21;;;;;;;13.40;10.30;;;21.70;99.90;;;;;;5028026;28;20029;-62
2022/07/21 11:02:53;;;;;;;14.27;11.43;;;21.60;99.90;;;;;;5028101;28;20491;-61
2022/07/21 11:05:19;;;;;;;14.00;10.93;;;21.40;99.90;;;;;;5032065;28;20025;-61
2022/07/21 11:08:11;;;;;;;14.65;10.25;;;21.50;99.90;;;;;;5028849;28;20034;-61
2022/07/21 11:10:51;;;;;;;13.18;10.55;;;21.40;99.90;;;;;;5039675;28;20079;-62
2022/07/21 11:13:19;;;;;;;12.00;10.40;;;21.40;99.90;;;;;;5032662;28;20037;-62
2022/07/21 11:15:53;;;;;;;14.05;10.70;;;21.50;99.90;;;;;;5040616;28;20037;-62
2022/07/21 11:18:21;;;;;;;13.07;10.43;;;21.50;99.90;;;;;;5047002;28;20669;-62
2022/07/21 11:21:05;;;;;;;11.95;10.38;;;21.40;99.90;;;;;;5036783;28;20036;-61
2022/07/21 11:23:37;;;;;;;13.32;10.48;;;21.40;99.90;;;;;;5032968;28;20116;-62
2022/07/21 11:26:03;;;;;;;10.02;8.65;;;21.40;99.90;;;;;;5029185;28;20049;-62
2022/07/21 11:28:29;;;;;;;13.48;10.55;;;21.30;99.90;;;;;;5029360;28;20067;-62
2022/07/21 11:31:24;;;;;;;13.77;10.95;;;21.30;99.90;;;;;;5029154;28;20045;-61
2022/07/21 11:33:50;;;;;;;15.15;11.07;;;21.20;99.90;;;;;;5029244;28;20053;-62
2022/07/21 11:36:30;;;;;;;12.02;10.63;;;21.20;99.90;;;;;;5031506;28;20053;-62
2022/07/21 11:39:01;;;;;;;12.70;10.65;;;21.20;99.90;;;;;;5032536;28;20067;-62
2022/07/21 11:41:26;;;;;;;14.65;11.35;;;21.40;99.90;;;;;;5026886;28;20045;-62
2022/07/21 11:43:52;;;;;;;16.23;12.15;;;21.40;99.90;;;;;;5029962;28;20061;-61
2022/07/21 11:46:18;;;;;;;15.20;12.23;;;21.40;99.90;;;;;;5028891;28;20077;-61
2022/07/21 11:48:43;;;;;;;14.65;11.82;;;21.30;99.90;;;;;;5035133;28;20039;-62
2022/07/21 11:51:09;;;;;;;14.35;12.25;;;21.10;99.90;;;;;;5033510;28;20048;-61
2022/07/21 11:53:35;;;;;;;16.83;12.25;;;21.30;99.90;;;;;;5036558;28;20064;-61
2022/07/21 11:56:01;;;;;;;14.00;12.50;;;21.50;99.90;;;;;;5032820;28;20124;-61
2022/07/21 11:58:26;;;;;;;14.63;12.65;;;21.60;99.90;;;;;;5031860;28;20108;-61
2022/07/21 12:01:08;;;;;;;15.55;12.10;;;21.40;99.90;;;;;;5030921;28;20052;-61
2022/07/21 12:03:33;;;;;;;13.98;11.48;;;21.50;99.90;;;;;;5027427;28;20386;-61
2022/07/21 12:06:01;;;;;;;11.85;10.40;;;21.50;99.90;;;;;;5031130;28;20029;-61
2022/07/21 12:08:28;;;;;;;16.00;10.68;;;21.30;99.90;;;;;;5033475;28;20558;-60
2022/07/21 12:11:05;;;;;;;11.85;8.98;;;21.20;99.90;;;;;;5029577;28;20356;-61
2022/07/21 12:13:50;;;;;;;13.38;9.30;;;21.20;99.90;;;;;;5027810;28;20028;-61
2022/07/21 12:16:16;;;;;;;11.35;8.52;;;21.20;99.90;;;;;;5036224;28;20030;-61
2022/07/21 12:18:41;;;;;;;10.10;8.55;;;21.20;99.90;;;;;;5050089;28;20029;-61
2022/07/21 12:21:07;;;;;;;9.70;8.27;;;21.20;99.90;;;;;;5037022;28;20525;-61
2022/07/21 12:23:33;;;;;;;9.20;8.05;;;21.40;99.90;;;;;;5033360;28;20029;-60
2022/07/21 12:26:01;;;;;;;11.13;7.85;;;21.50;99.90;;;;;;5029157;28;20032;-61
2022/07/21 12:28:48;;;;;;;10.77;7.75;;;21.50;99.90;;;;;;5035106;28;20637;-61
2022/07/21 12:31:20;;;;;;;8.18;6.70;;;21.40;99.90;;;;;;5027347;28;20037;-61
2022/07/21 12:33:46;;;;;;;8.23;6.93;;;21.40;99.90;;;;;;5036873;28;20040;-61
2022/07/21 12:36:12;;;;;;;9.45;6.50;;;21.40;99.90;;;;;;5027846;28;20033;-61
2022/07/21 12:38:41;;;;;;;7.88;7.05;;;21.30;99.90;;;;;;5031893;28;20032;-62
2022/07/21 12:41:08;;;;;;;8.30;7.38;;;21.30;99.90;;;;;;5025710;28;20029;-62